Time;durP1;ratioP1;P1;durP2;ratioP2;P2;SDS_P1;SDS_P2;PMS_P1;PMS_P2;Temp;Humidity;BMP_temperature;BMP_pressure;BME280_temperature;BME280_humidity;BME280_pressure;Samples;Min_cycle;Max_cycle;Signal;HPM_P1;HPM_P2
2022/11/03 00:01:38;;;;;;;0.10;0.10;;;6.30;99.90;5.10;97783.00;;;;5039994;28;20199;-75
2022/11/03 00:04:09;;;;;;;0.10;0.10;;;6.30;99.90;5.00;97776.00;;;;5034844;28;20226;-74
2022/11/03 00:06:38;;;;;;;0.10;0.10;;;6.30;99.90;5.20;97795.00;;;;5046855;28;20241;-75
2022/11/03 00:09:09;;;;;;;0.10;0.10;;;6.40;99.90;5.30;97786.00;;;;5051324;28;20198;-75
2022/11/03 00:11:41;;;;;;;0.10;0.10;;;6.50;99.90;5.30;97788.00;;;;5050258;28;20591;-75
2022/11/03 00:14:10;;;;;;;0.10;0.10;;;6.60;99.90;5.40;97726.00;;;;5048462;28;20681;-75
2022/11/03 00:16:41;;;;;;;0.10;0.10;;;6.60;99.90;5.40;97776.00;;;;5044643;28;20206;-74
2022/11/03 00:19:12;;;;;;;0.10;0.10;;;6.60;99.90;5.40;97775.00;;;;5034365;28;20751;-75
2022/11/03 00:21:40;;;;;;;0.10;0.10;;;6.70;99.90;5.40;97772.00;;;;5051637;28;20194;-75
2022/11/03 00:24:09;;;;;;;0.10;0.10;;;6.70;99.90;5.40;97774.00;;;;5051941;28;20658;-74
2022/11/03 00:26:39;;;;;;;0.10;0.10;;;6.60;99.90;5.40;97775.00;;;;5042414;28;20190;-74
2022/11/03 00:29:09;;;;;;;0.10;0.10;;;6.60;99.90;5.40;97767.00;;;;5048392;28;20217;-74
2022/11/03 00:31:40;;;;;;;0.00;0.00;;;6.60;99.90;5.40;97778.00;;;;5042162;28;20198;-74
2022/11/03 00:34:10;;;;;;;0.10;0.10;;;6.60;99.90;5.30;97777.00;;;;5053291;28;20226;-74
2022/11/03 00:36:40;;;;;;;0.10;0.10;;;6.50;99.90;5.30;97768.00;;;;5052990;28;20194;-75
2022/11/03 00:39:10;;;;;;;0.10;0.10;;;6.50;99.90;5.40;97759.00;;;;5042177;28;20203;-73
2022/11/03 00:41:40;;;;;;;0.10;0.10;;;6.60;99.90;5.20;97754.00;;;;5042612;28;20232;-73
2022/11/03 00:44:09;;;;;;;0.10;0.10;;;6.40;99.90;5.20;97765.00;;;;5052304;28;20211;-73
2022/11/03 00:46:39;;;;;;;0.10;0.10;;;6.40;99.90;5.20;97757.00;;;;5045745;28;20191;-73
2022/11/03 00:49:07;;;;;;;0.10;0.10;;;6.40;99.90;5.20;97735.00;;;;5043140;28;20198;-71
2022/11/03 00:51:36;;;;;;;0.10;0.10;;;6.50;99.90;5.30;97740.00;;;;5042948;28;20203;-70
2022/11/03 00:54:06;;;;;;;0.10;0.10;;;6.50;99.90;5.30;97742.00;;;;5052472;28;20237;-70
2022/11/03 00:56:37;;;;;;;0.10;0.10;;;6.50;99.90;5.20;97736.00;;;;5044944;28;20195;-70
2022/11/03 00:59:09;;;;;;;0.10;0.10;;;6.40;99.90;5.20;97731.00;;;;5050839;28;20229;-72
2022/11/03 01:01:40;;;;;;;0.10;0.10;;;6.30;99.90;5.20;97736.00;;;;5041866;28;20202;-70
2022/11/03 01:07:01;;;;;;;0.10;0.10;;;6.50;99.90;5.40;97729.00;;;;5045647;28;20246;-72
2022/11/03 01:09:33;;;;;;;0.10;0.10;;;6.60;99.90;5.40;97727.00;;;;5043769;28;20206;-72
2022/11/03 01:12:05;;;;;;;0.10;0.10;;;6.70;99.90;5.40;97726.00;;;;5043794;28;20256;-71
2022/11/03 01:14:37;;;;;;;0.10;0.10;;;6.60;99.90;5.40;97641.00;;;;5041614;28;20214;-71
2022/11/03 01:17:07;;;;;;;0.10;0.10;;;6.60;99.90;5.50;97738.00;;;;5045057;28;20214;-71
2022/11/03 01:19:35;;;;;;;0.10;0.10;;;6.60;99.90;5.30;97739.00;;;;5050756;28;20214;-71
2022/11/03 01:22:04;;;;;;;0.10;0.10;;;6.40;99.90;5.30;97739.00;;;;5041554;28;20244;-70
2022/11/03 01:24:38;;;;;;;0.10;0.10;;;6.50;99.90;5.20;97729.00;;;;5050952;28;20198;-72
2022/11/03 01:27:06;;;;;;;0.10;0.10;;;6.40;99.90;5.20;97722.00;;;;5040970;28;20222;-72
2022/11/03 01:29:36;;;;;;;0.10;0.10;;;6.40;99.90;5.10;97715.00;;;;5044057;28;20610;-72
2022/11/03 01:32:05;;;;;;;0.10;0.10;;;6.40;99.90;5.10;97707.00;;;;5050855;28;20256;-72
2022/11/03 01:34:33;;;;;;;0.10;0.10;;;6.30;99.90;5.10;97714.00;;;;5051062;28;20226;-71
2022/11/03 01:37:01;;;;;;;0.10;0.10;;;6.40;99.90;5.20;97705.00;;;;5043858;28;20229;-70
2022/11/03 01:39:29;;;;;;;0.10;0.10;;;6.40;99.90;5.20;97715.00;;;;5050321;28;20191;-71
2022/11/03 01:41:58;;;;;;;0.10;0.10;;;6.40;99.90;5.10;97696.00;;;;5038728;28;20256;-70
2022/11/03 01:44:33;;;;;;;0.10;0.10;;;6.20;99.90;5.10;97691.00;;;;5048493;28;20610;-70
2022/11/03 01:47:12;;;;;;;0.10;0.10;;;6.20;99.90;5.10;97700.00;;;;5038340;28;20268;-69
2022/11/03 01:49:48;;;;;;;0.10;0.10;;;6.30;99.90;5.10;97697.00;;;;5058969;28;20194;-71
2022/11/03 01:52:23;;;;;;;0.00;0.00;;;6.20;99.90;5.10;97681.00;;;;5046781;28;20199;-70
2022/11/03 01:55:00;;;;;;;0.08;0.08;;;6.20;99.90;5.10;97691.00;;;;5048068;28;20220;-70
2022/11/03 01:57:38;;;;;;;0.10;0.10;;;6.20;99.90;5.00;97664.00;;;;5040246;28;20221;-70
2022/11/03 02:00:08;;;;;;;0.10;0.10;;;6.20;99.90;5.00;97663.00;;;;5046934;28;20191;-70
2022/11/03 02:02:42;;;;;;;0.10;0.10;;;6.20;99.90;5.10;97674.00;;;;5043120;28;20197;-69
2022/11/03 02:05:14;;;;;;;0.10;0.10;;;6.20;99.90;5.10;97665.00;;;;5043061;28;20662;-70
2022/11/03 02:07:52;;;;;;;0.10;0.10;;;6.20;99.90;5.00;97663.00;;;;5046504;28;20279;-71
2022/11/03 02:10:22;;;;;;;0.10;0.10;;;6.20;99.90;5.00;97658.00;;;;5044400;28;20206;-71
2022/11/03 02:12:51;;;;;;;0.10;0.10;;;6.20;99.90;5.00;97569.00;;;;5051414;28;20747;-70
2022/11/03 02:15:22;;;;;;;0.10;0.10;;;6.20;99.90;5.00;97655.00;;;;5047085;28;20285;-69
2022/11/03 02:17:54;;;;;;;0.10;0.10;;;6.20;99.90;5.00;97653.00;;;;5046473;28;20202;-71
2022/11/03 02:20:28;;;;;;;0.10;0.10;;;6.20;99.90;5.00;97643.00;;;;5047472;28;20186;-70
2022/11/03 02:23:23;;;;;;;0.10;0.10;;;6.20;99.90;5.00;97628.00;;;;5051532;28;20198;-70
2022/11/03 02:25:54;;;;;;;0.10;0.10;;;6.20;99.90;5.00;97632.00;;;;5047184;28;20220;-69
2022/11/03 02:28:27;;;;;;;0.10;0.10;;;6.20;99.90;5.00;97633.00;;;;5054113;28;20214;-69
2022/11/03 02:31:09;;;;;;;0.10;0.10;;;6.10;99.90;4.90;97641.00;;;;5053396;28;20222;-71
2022/11/03 02:33:49;;;;;;;0.10;0.10;;;6.10;99.90;4.90;97628.00;;;;5053377;28;20628;-69
2022/11/03 02:36:25;;;;;;;0.10;0.10;;;6.00;99.90;4.90;97609.00;;;;5044772;28;20199;-69
2022/11/03 02:38:58;;;;;;;0.10;0.10;;;6.00;99.90;4.90;97614.00;;;;5051467;28;20248;-69
2022/11/03 02:41:31;;;;;;;0.10;0.10;;;6.00;99.90;4.80;97607.00;;;;5043827;28;20186;-69
2022/11/03 02:44:01;;;;;;;0.10;0.10;;;6.00;99.90;4.90;97617.00;;;;5053578;28;20731;-69
2022/11/03 02:46:32;;;;;;;0.10;0.10;;;6.00;99.90;4.80;97600.00;;;;5051233;28;20194;-69
2022/11/03 02:49:00;;;;;;;0.10;0.10;;;6.00;99.90;4.80;97586.00;;;;5049518;28;20221;-69
2022/11/03 02:51:28;;;;;;;0.10;0.10;;;6.00;99.90;4.80;97599.00;;;;5041134;28;20569;-71
2022/11/03 02:54:09;;;;;;;0.10;0.10;;;5.90;99.90;4.70;97592.00;;;;5049402;28;20700;-74
2022/11/03 02:56:46;;;;;;;0.10;0.10;;;6.00;99.90;4.80;97595.00;;;;5039389;28;20256;-71
2022/11/03 02:59:20;;;;;;;0.10;0.10;;;6.00;99.90;4.90;97597.00;;;;5030634;28;20191;-70
2022/11/03 03:01:57;;;;;;;0.10;0.10;;;6.00;99.90;4.90;97588.00;;;;5035738;28;20229;-70
2022/11/03 03:04:33;;;;;;;0.10;0.10;;;6.00;99.90;4.90;97582.00;;;;5051168;28;20597;-71
2022/11/03 03:07:06;;;;;;;0.10;0.10;;;6.00;99.90;4.90;97581.00;;;;5037899;28;20202;-71
2022/11/03 03:09:41;;;;;;;0.10;0.10;;;6.10;99.90;5.00;97584.00;;;;5050341;28;20191;-70
2022/11/03 03:12:12;;;;;;;0.10;0.10;;;6.10;99.90;5.00;97503.00;;;;5050701;28;20198;-70
2022/11/03 03:14:45;;;;;;;0.10;0.10;;;6.20;99.90;5.10;97577.00;;;;5054725;28;20218;-70
2022/11/03 03:17:23;;;;;;;0.10;0.10;;;6.30;99.90;5.00;97567.00;;;;5041569;28;20214;-71
2022/11/03 03:19:59;;;;;;;0.10;0.10;;;6.20;99.90;5.00;97497.00;;;;5054539;28;20190;-71
2022/11/03 03:22:35;;;;;;;0.10;0.10;;;6.20;99.90;5.00;97576.00;;;;5045720;28;20253;-69
2022/11/03 03:25:12;;;;;;;0.10;0.10;;;6.10;99.90;5.00;97552.00;;;;5046118;28;20270;-70
2022/11/03 03:27:48;;;;;;;0.10;0.10;;;6.10;99.90;4.90;97554.00;;;;5040514;28;20236;-70
2022/11/03 03:30:18;;;;;;;0.10;0.10;;;6.00;99.90;4.90;97548.00;;;;5051961;28;20194;-70
2022/11/03 03:32:49;;;;;;;0.10;0.10;;;6.00;99.90;4.80;97537.00;;;;5052701;28;20256;-71
2022/11/03 03:35:22;;;;;;;0.10;0.10;;;5.90;99.90;4.80;97542.00;;;;5051177;28;20218;-70
2022/11/03 03:37:57;;;;;;;0.10;0.10;;;5.90;99.90;4.80;97531.00;;;;5052579;28;20709;-71
2022/11/03 03:40:39;;;;;;;0.10;0.10;;;5.90;99.90;4.80;97535.00;;;;5051285;28;20208;-70
2022/11/03 03:43:13;;;;;;;0.10;0.10;;;5.90;99.90;4.80;97540.00;;;;5044372;28;20256;-70
2022/11/03 03:45:43;;;;;;;0.10;0.10;;;5.90;99.90;4.80;97526.00;;;;5050019;28;20195;-71
2022/11/03 03:48:13;;;;;;;0.10;0.10;;;5.90;99.90;4.70;97523.00;;;;5053149;28;20771;-70
2022/11/03 03:50:44;;;;;;;0.10;0.10;;;5.90;99.90;4.70;97535.00;;;;5049706;28;20191;-71
2022/11/03 03:53:13;;;;;;;0.10;0.10;;;5.90;99.90;4.70;97529.00;;;;5053955;28;20216;-71
2022/11/03 03:55:45;;;;;;;0.10;0.10;;;5.90;99.90;4.80;97524.00;;;;5049813;28;20264;-72
2022/11/03 03:58:16;;;;;;;0.10;0.10;;;5.90;99.90;4.80;97526.00;;;;5053141;28;20693;-72
2022/11/03 04:00:44;;;;;;;0.10;0.10;;;5.90;99.90;4.80;97532.00;;;;5051809;28;20194;-71
2022/11/03 04:03:17;;;;;;;0.10;0.10;;;5.90;99.90;4.70;97428.00;;;;5035940;28;20207;-72
2022/11/03 04:05:46;;;;;;;0.10;0.10;;;5.90;99.90;4.80;97516.00;;;;5039751;28;20237;-72
2022/11/03 04:08:16;;;;;;;0.10;0.10;;;6.00;99.90;4.80;97520.00;;;;5053082;28;20218;-71
2022/11/03 04:22:15;;;;;;;0.10;0.10;;;6.00;99.90;4.90;97497.00;;;;5053420;28;20670;-71
2022/11/03 04:24:43;;;;;;;0.10;0.10;;;6.30;99.90;5.10;97502.00;;;;5053254;28;20212;-72
2022/11/03 04:27:30;;;;;;;0.10;0.10;;;6.30;99.90;5.10;97496.00;;;;5044047;28;20214;-71
2022/11/03 04:30:09;;;;;;;0.10;0.10;;;6.30;99.90;5.10;97501.00;;;;5043303;28;20191;-72
2022/11/03 04:32:38;;;;;;;0.10;0.10;;;6.30;99.90;5.10;97500.00;;;;5040958;28;20689;-71
2022/11/03 04:35:16;;;;;;;0.10;0.10;;;6.30;99.90;5.00;97496.00;;;;5045591;28;20670;-71
2022/11/03 04:37:48;;;;;;;0.10;0.10;;;6.20;99.90;4.90;97488.00;;;;5040093;28;20227;-70
2022/11/03 04:40:17;;;;;;;0.10;0.10;;;6.20;99.90;4.90;97488.00;;;;5037183;28;20245;-70
2022/11/03 04:42:46;;;;;;;0.10;0.10;;;6.10;99.90;4.90;97471.00;;;;5040651;28;20264;-71
2022/11/03 04:45:26;;;;;;;0.10;0.10;;;6.10;99.90;5.00;97468.00;;;;5037008;28;20207;-71
2022/11/03 04:47:55;;;;;;;0.10;0.10;;;6.20;99.90;5.00;97472.00;;;;5045377;28;20230;-70
2022/11/03 04:50:24;;;;;;;0.10;0.10;;;6.20;99.90;5.10;97470.00;;;;5043453;28;20206;-70
2022/11/03 04:52:57;;;;;;;0.10;0.10;;;6.20;99.90;5.10;97466.00;;;;5043775;28;20225;-71
2022/11/03 04:55:26;;;;;;;0.10;0.10;;;6.30;99.90;5.20;97454.00;;;;5033730;28;20702;-70
2022/11/03 04:58:00;;;;;;;0.10;0.10;;;6.40;99.90;5.20;97458.00;;;;5045928;28;20218;-72
2022/11/03 05:00:29;;;;;;;0.10;0.10;;;6.40;99.90;5.20;97464.00;;;;5051950;28;20198;-70
2022/11/03 05:02:57;;;;;;;0.10;0.10;;;6.40;99.90;5.30;97463.00;;;;5041611;28;20220;-70
2022/11/03 05:05:26;;;;;;;0.10;0.10;;;6.40;99.90;5.30;97291.00;;;;5052618;28;20198;-70
2022/11/03 05:07:57;;;;;;;0.10;0.10;;;6.50;99.90;5.30;97267.00;;;;5049610;28;20264;-70
2022/11/03 05:10:29;;;;;;;0.10;0.10;;;6.50;99.90;5.30;97291.00;;;;5051801;28;20198;-70
2022/11/03 05:13:00;;;;;;;0.10;0.10;;;6.50;99.90;5.30;97257.00;;;;5049011;28;20194;-71
2022/11/03 05:15:35;;;;;;;0.10;0.10;;;6.50;99.90;5.30;97448.00;;;;5051116;28;20214;-70
2022/11/03 05:18:16;;;;;;;0.10;0.10;;;6.40;99.90;5.20;97449.00;;;;5042640;28;20633;-70
2022/11/03 05:20:51;;;;;;;0.10;0.10;;;6.30;99.90;5.10;97443.00;;;;5044240;28;20194;-71
2022/11/03 05:23:21;;;;;;;0.10;0.10;;;6.30;99.90;5.10;97453.00;;;;5043674;28;20213;-69
2022/11/03 05:25:53;;;;;;;0.10;0.10;;;6.30;99.90;5.10;97435.00;;;;5049461;28;20776;-70
2022/11/03 05:28:30;;;;;;;0.10;0.10;;;6.20;99.90;5.00;97382.00;;;;5047342;28;20206;-70
2022/11/03 05:31:00;;;;;;;0.10;0.10;;;6.20;99.90;5.00;97438.00;;;;5050907;28;20199;-71
2022/11/03 05:33:31;;;;;;;0.10;0.10;;;6.20;99.90;5.00;97433.00;;;;5046900;28;20241;-71
2022/11/03 05:36:06;;;;;;;0.10;0.10;;;6.20;99.90;5.00;97431.00;;;;5055253;28;20234;-71
2022/11/03 05:38:34;;;;;;;0.10;0.10;;;6.20;99.90;5.10;97429.00;;;;5047825;28;20210;-71
2022/11/03 05:41:03;;;;;;;0.10;0.10;;;6.20;99.90;5.10;97427.00;;;;5052986;28;20203;-70
2022/11/03 05:43:33;;;;;;;0.10;0.10;;;6.20;99.90;5.10;97431.00;;;;5045251;28;20195;-70
2022/11/03 05:46:03;;;;;;;0.10;0.10;;;6.20;99.90;5.20;97446.00;;;;5041682;28;20257;-71
2022/11/03 05:48:36;;;;;;;0.10;0.10;;;6.30;99.90;5.20;97439.00;;;;5048351;28;20230;-71
2022/11/03 05:51:20;;;;;;;0.10;0.10;;;6.30;99.90;5.20;97424.00;;;;5057485;28;20276;-71
2022/11/03 05:53:52;;;;;;;0.10;0.10;;;6.30;99.90;5.20;97435.00;;;;5047592;28;20268;-70
2022/11/03 05:56:24;;;;;;;0.10;0.10;;;6.40;99.90;5.20;97431.00;;;;5051992;28;20793;-73
2022/11/03 05:58:55;;;;;;;0.10;0.10;;;6.30;99.90;5.20;97432.00;;;;5051611;28;20214;-72
2022/11/03 06:01:31;;;;;;;0.10;0.10;;;6.40;99.90;5.20;97256.00;;;;5054697;28;20217;-73
2022/11/03 06:04:04;;;;;;;0.10;0.10;;;6.30;99.90;5.10;97433.00;;;;5048683;28;20551;-71
2022/11/03 06:06:37;;;;;;;0.10;0.10;;;6.20;99.90;5.10;97428.00;;;;5055152;28;20596;-71
2022/11/03 06:09:14;;;;;;;0.10;0.10;;;6.20;99.90;5.10;97412.00;;;;5032646;28;20509;-71
2022/11/03 06:11:44;;;;;;;0.10;0.10;;;6.20;99.90;5.10;97424.00;;;;5051163;28;20198;-71
2022/11/03 06:14:19;;;;;;;0.10;0.10;;;6.20;99.90;5.10;97422.00;;;;5032847;28;20616;-71
2022/11/03 06:16:56;;;;;;;0.10;0.10;;;6.20;99.90;5.10;97423.00;;;;5039368;28;20213;-70
2022/11/03 06:19:29;;;;;;;0.10;0.10;;;6.20;99.90;5.10;97307.00;;;;5050730;28;20667;-69
2022/11/03 06:22:02;;;;;;;0.10;0.10;;;6.20;99.90;5.10;97405.00;;;;5047531;28;20198;-69
2022/11/03 06:24:33;;;;;;;0.10;0.10;;;6.30;99.90;5.20;97422.00;;;;5042924;28;20236;-70
2022/11/03 06:27:02;;;;;;;0.10;0.10;;;6.30;99.90;5.20;97420.00;;;;5048201;28;20256;-71
2022/11/03 06:29:32;;;;;;;0.10;0.10;;;6.30;99.90;5.20;97410.00;;;;5048953;28;20202;-71
2022/11/03 06:32:02;;;;;;;0.10;0.10;;;6.30;99.90;5.20;97407.00;;;;5044606;28;20198;-72
2022/11/03 06:34:38;;;;;;;0.10;0.10;;;6.40;99.90;5.20;97395.00;;;;5049010;28;20194;-71
2022/11/03 06:37:19;;;;;;;0.10;0.10;;;6.40;99.90;5.20;97340.00;;;;5037330;28;20260;-71
2022/11/03 06:39:49;;;;;;;0.10;0.10;;;6.40;99.90;5.30;97395.00;;;;5048321;28;20202;-73
2022/11/03 06:42:23;;;;;;;0.10;0.10;;;6.40;99.90;5.30;97392.00;;;;5031937;28;20187;-73
2022/11/03 06:44:57;;;;;;;0.10;0.10;;;6.50;99.90;5.40;97368.00;;;;5036654;28;20273;-73
2022/11/03 06:47:29;;;;;;;0.10;0.10;;;6.50;99.90;5.40;97402.00;;;;5041525;28;20230;-74
2022/11/03 06:50:00;;;;;;;0.10;0.10;;;6.50;99.90;5.40;97398.00;;;;5037259;28;20202;-74
2022/11/03 06:52:34;;;;;;;0.10;0.10;;;6.50;99.90;5.50;97408.00;;;;5050149;28;20264;-74
2022/11/03 06:55:24;;;;;;;0.10;0.10;;;6.60;99.90;5.50;97416.00;;;;5035272;28;20244;-74
2022/11/03 06:57:59;;;;;;;0.10;0.10;;;6.60;99.90;5.50;97397.00;;;;5046164;28;20218;-74
2022/11/03 07:00:30;;;;;;;0.10;0.10;;;6.70;99.90;5.60;97394.00;;;;5052536;28;20193;-74
2022/11/03 07:03:11;;;;;;;0.10;0.10;;;6.70;99.90;5.60;97391.00;;;;5055232;28;20190;-74
2022/11/03 07:05:41;;;;;;;0.10;0.10;;;6.70;99.90;5.60;97388.00;;;;5039863;28;20220;-75
2022/11/03 07:08:23;;;;;;;0.10;0.10;;;6.70;99.90;5.60;97387.00;;;;5047761;28;20229;-75
2022/11/03 07:11:02;;;;;;;0.10;0.10;;;6.80;99.90;5.70;97274.00;;;;5043188;28;20293;-75
2022/11/03 07:13:34;;;;;;;0.10;0.10;;;6.80;99.90;5.60;97390.00;;;;5054652;28;20221;-74
2022/11/03 07:16:03;;;;;;;0.10;0.10;;;6.80;99.90;5.70;97386.00;;;;5034795;28;20219;-75
2022/11/03 07:18:39;;;;;;;0.10;0.10;;;6.80;99.90;5.70;97381.00;;;;5050674;28;20211;-75
2022/11/03 07:21:29;;;;;;;0.10;0.10;;;6.80;99.90;5.70;97388.00;;;;5035784;28;20293;-74
2022/11/03 07:23:59;;;;;;;0.10;0.10;;;6.80;99.90;5.60;97364.00;;;;5038361;28;20653;-75
2022/11/03 07:26:28;;;;;;;0.10;0.10;;;6.80;99.90;5.70;97327.00;;;;5053375;28;20199;-74
2022/11/03 07:28:56;;;;;;;0.10;0.10;;;6.80;99.90;5.70;97374.00;;;;5045080;28;20214;-75
2022/11/03 07:31:26;;;;;;;0.10;0.10;;;6.80;99.90;5.80;97381.00;;;;5034623;28;20188;-74
2022/11/03 07:33:59;;;;;;;0.10;0.10;;;6.90;99.90;5.90;97359.00;;;;5035139;28;20195;-75
2022/11/03 07:36:31;;;;;;;0.10;0.10;;;6.90;99.90;5.90;97353.00;;;;5052433;28;20218;-75
2022/11/03 07:39:02;;;;;;;0.10;0.10;;;7.00;99.90;6.00;97366.00;;;;5053268;28;20215;-72
2022/11/03 07:41:33;;;;;;;0.10;0.10;;;7.10;99.90;6.10;97355.00;;;;5044347;28;20206;-74
2022/11/03 07:44:02;;;;;;;0.10;0.10;;;7.10;99.90;6.20;97358.00;;;;5033093;28;20286;-72
2022/11/03 07:46:30;;;;;;;0.10;0.10;;;7.30;99.90;6.30;97351.00;;;;5040430;28;20202;-73
2022/11/03 07:49:02;;;;;;;0.10;0.10;;;7.30;99.90;6.30;97354.00;;;;5053009;28;20228;-74
2022/11/03 07:51:33;;;;;;;0.10;0.10;;;7.40;99.90;6.40;97198.00;;;;5054138;28;20643;-72
2022/11/03 07:54:12;;;;;;;0.10;0.10;;;7.40;99.90;6.40;97176.00;;;;5044733;28;20261;-74
2022/11/03 07:56:46;;;;;;;0.10;0.10;;;7.50;99.90;6.50;97186.00;;;;5034182;28;20217;-74
2022/11/03 07:59:20;;;;;;;0.10;0.10;;;7.50;99.90;6.60;97234.00;;;;5049122;28;20519;-72
2022/11/03 08:01:51;;;;;;;0.10;0.10;;;7.60;99.90;6.60;97284.00;;;;5053999;28;21029;-71
2022/11/03 08:04:24;;;;;;;0.10;0.10;;;7.70;99.90;6.70;97277.00;;;;5041119;28;20195;-72
2022/11/03 08:06:53;;;;;;;0.10;0.10;;;7.70;99.90;6.80;97274.00;;;;5053824;28;20260;-72
2022/11/03 08:09:21;;;;;;;0.10;0.10;;;7.80;99.90;6.90;97285.00;;;;5042426;28;20666;-73
2022/11/03 08:11:51;;;;;;;0.10;0.10;;;7.90;99.90;7.00;97296.00;;;;5045420;28;20263;-72
2022/11/03 08:14:19;;;;;;;0.10;0.10;;;8.00;99.90;7.10;97297.00;;;;5046254;28;20195;-72
2022/11/03 08:16:47;;;;;;;0.10;0.10;;;8.20;99.90;7.30;97289.00;;;;5043394;28;20223;-74
2022/11/03 08:19:15;;;;;;;0.10;0.10;;;8.30;99.90;7.40;97287.00;;;;5053643;28;20325;-73
2022/11/03 08:21:45;;;;;;;0.10;0.10;;;8.40;99.90;7.50;97277.00;;;;5055828;28;20202;-74
2022/11/03 08:24:13;;;;;;;0.10;0.10;;;8.50;99.90;7.60;97287.00;;;;5048813;28;20198;-73
2022/11/03 08:26:41;;;;;;;0.10;0.10;;;8.70;99.90;7.80;97275.00;;;;5053426;28;20194;-73
2022/11/03 08:29:09;;;;;;;0.10;0.10;;;8.80;99.90;7.90;97269.00;;;;5054042;28;20563;-74
2022/11/03 08:31:37;;;;;;;0.10;0.10;;;8.90;99.90;8.00;97273.00;;;;5046934;28;20257;-74
2022/11/03 08:34:06;;;;;;;0.10;0.10;;;9.00;99.90;8.10;97262.00;;;;5044676;28;20210;-73
2022/11/03 08:36:34;;;;;;;0.10;0.10;;;9.10;99.90;8.20;97264.00;;;;5046448;28;20607;-73
2022/11/03 08:39:04;;;;;;;0.10;0.10;;;9.20;99.90;8.30;97269.00;;;;5045581;28;20245;-73
2022/11/03 08:41:32;;;;;;;0.10;0.10;;;9.30;99.90;8.40;97256.00;;;;5045103;28;20324;-73
2022/11/03 08:44:00;;;;;;;0.10;0.10;;;9.40;99.90;8.50;97254.00;;;;5050214;28;20704;-73
2022/11/03 08:46:28;;;;;;;0.10;0.10;;;9.50;99.90;8.60;97238.00;;;;5047448;28;20202;-74
2022/11/03 08:48:56;;;;;;;0.10;0.10;;;9.60;99.90;8.70;97233.00;;;;5051266;28;20284;-73
2022/11/03 08:51:25;;;;;;;0.10;0.10;;;9.70;99.90;8.80;97231.00;;;;5048699;28;20244;-73
2022/11/03 08:53:54;;;;;;;0.10;0.10;;;9.70;99.90;8.80;97237.00;;;;5054259;28;20998;-73
2022/11/03 08:56:23;;;;;;;0.10;0.10;;;9.80;99.90;8.90;97226.00;;;;5050260;28;20190;-72
2022/11/03 08:58:51;;;;;;;0.10;0.10;;;9.90;99.90;9.00;97215.00;;;;5045586;28;20245;-72
2022/11/03 09:01:19;;;;;;;0.10;0.10;;;9.90;99.90;9.10;97219.00;;;;5044624;28;20709;-72
2022/11/03 09:03:48;;;;;;;0.10;0.10;;;10.00;99.90;9.20;97215.00;;;;5042297;28;20277;-72
2022/11/03 09:06:16;;;;;;;0.10;0.10;;;10.10;99.90;9.20;97211.00;;;;5046047;28;20203;-72
2022/11/03 09:08:45;;;;;;;0.10;0.10;;;10.20;99.90;9.30;97205.00;;;;5043467;28;20706;-72
2022/11/03 09:11:34;;;;;;;0.10;0.10;;;10.30;99.90;9.40;97243.00;;;;5038326;28;20305;-72
2022/11/03 09:14:03;;;;;;;0.10;0.10;;;10.40;99.90;9.50;97194.00;;;;5044155;28;20611;-71
2022/11/03 09:16:31;;;;;;;0.10;0.10;;;10.50;99.90;9.60;97199.00;;;;5042740;28;20195;-73
2022/11/03 09:18:59;;;;;;;0.10;0.10;;;10.60;99.90;9.70;97173.00;;;;5030099;28;20610;-73
2022/11/03 09:21:27;;;;;;;0.10;0.10;;;10.60;99.90;9.80;97188.00;;;;5043951;28;20195;-73
2022/11/03 09:23:58;;;;;;;0.10;0.10;;;10.70;99.90;9.90;97188.00;;;;5045494;28;20224;-71
2022/11/03 09:26:26;;;;;;;0.10;0.10;;;10.80;99.90;10.00;97196.00;;;;5044338;28;20545;-72
2022/11/03 09:28:55;;;;;;;0.10;0.10;;;10.90;99.90;10.10;97180.00;;;;5046750;28;20231;-71
2022/11/03 09:31:27;;;;;;;0.10;0.10;;;11.00;99.90;10.10;97186.00;;;;5043879;28;20213;-75
2022/11/03 09:33:55;;;;;;;0.10;0.10;;;11.10;99.90;10.20;97186.00;;;;5043391;28;20257;-73
2022/11/03 09:36:23;;;;;;;0.10;0.10;;;11.10;99.90;10.30;97176.00;;;;5043036;28;20203;-73
2022/11/03 09:38:51;;;;;;;0.10;0.10;;;11.10;99.90;10.30;97167.00;;;;5042616;28;20717;-74
2022/11/03 09:41:20;;;;;;;0.10;0.10;;;11.20;99.90;10.40;97169.00;;;;5039047;28;20203;-73
2022/11/03 09:44:10;;;;;;;0.10;0.10;;;11.20;99.90;10.50;97160.00;;;;5042829;28;20210;-75
2022/11/03 09:46:39;;;;;;;0.00;0.00;;;11.40;99.90;10.50;97158.00;;;;5043172;28;20229;-74
2022/11/03 09:49:07;;;;;;;0.10;0.10;;;11.40;99.90;10.60;97145.00;;;;5043638;28;20223;-73
2022/11/03 09:51:36;;;;;;;0.10;0.10;;;11.50;99.90;10.70;97145.00;;;;5046674;28;20245;-73
2022/11/03 09:54:05;;;;;;;0.10;0.10;;;11.60;99.90;10.70;97152.00;;;;5041016;28;20248;-73
2022/11/03 09:56:36;;;;;;;0.10;0.10;;;11.60;99.90;10.80;97138.00;;;;5045172;28;20236;-73
2022/11/03 09:59:16;;;;;;;0.10;0.10;;;11.70;99.90;10.90;97131.00;;;;5044805;28;20226;-74
2022/11/03 10:01:48;;;;;;;0.10;0.10;;;11.70;99.90;11.00;97116.00;;;;5046017;28;20206;-73
2022/11/03 10:04:21;;;;;;;0.10;0.10;;;11.80;99.90;11.10;97121.00;;;;5044597;28;20598;-74
2022/11/03 10:06:49;;;;;;;0.10;0.10;;;11.90;99.90;11.00;97116.00;;;;5042380;28;20310;-73
2022/11/03 10:09:19;;;;;;;0.10;0.10;;;12.00;99.90;11.20;97110.00;;;;5048504;28;20693;-73
2022/11/03 10:11:48;;;;;;;0.10;0.10;;;12.00;99.90;11.30;97114.00;;;;5050467;28;20591;-73
2022/11/03 10:14:19;;;;;;;0.10;0.10;;;12.20;99.90;11.40;97110.00;;;;5045401;28;20194;-72
2022/11/03 10:16:56;;;;;;;0.00;0.00;;;12.20;99.90;11.40;97114.00;;;;5042262;28;20194;-73
2022/11/03 10:19:24;;;;;;;0.00;0.00;;;12.20;99.90;11.30;97105.00;;;;5044727;28;20222;-72
2022/11/03 10:21:53;;;;;;;0.10;0.10;;;12.20;99.90;11.40;97096.00;;;;5044392;28;20537;-73
2022/11/03 10:24:21;;;;;;;0.10;0.10;;;12.20;99.90;11.40;97100.00;;;;5056037;28;20232;-72
2022/11/03 10:26:54;;;;;;;0.10;0.10;;;12.30;99.90;11.40;97082.00;;;;5060731;28;20769;-72
2022/11/03 10:29:25;;;;;;;0.10;0.10;;;12.30;99.90;11.50;97031.00;;;;5049084;28;20248;-71
2022/11/03 10:31:57;;;;;;;0.05;0.05;;;12.30;99.90;11.50;97084.00;;;;5032630;28;20577;-73
2022/11/03 10:34:33;;;;;;;0.10;0.10;;;12.30;99.90;11.50;97040.00;;;;5049342;28;20204;-72
2022/11/03 10:37:19;;;;;;;0.08;0.08;;;12.30;99.90;11.50;97100.00;;;;5049141;28;20220;-72
2022/11/03 10:39:49;;;;;;;0.10;0.10;;;12.40;99.90;11.50;97089.00;;;;5053724;28;20201;-71
2022/11/03 10:42:21;;;;;;;0.10;0.10;;;12.30;99.90;11.50;97082.00;;;;5053893;28;20669;-70
2022/11/03 10:44:54;;;;;;;0.10;0.10;;;12.40;99.90;11.50;97073.00;;;;5042911;28;20252;-71
2022/11/03 10:47:33;;;;;;;0.00;0.00;;;12.40;99.90;11.60;97074.00;;;;5030892;28;20269;-71
2022/11/03 10:50:20;;;;;;;0.10;0.10;;;12.40;99.90;11.70;97057.00;;;;5032217;28;20191;-71
2022/11/03 10:52:50;;;;;;;0.10;0.10;;;12.50;99.90;11.70;97050.00;;;;5050410;28;20202;-72
2022/11/03 10:55:22;;;;;;;0.10;0.10;;;12.50;99.90;11.70;97050.00;;;;5052038;28;20222;-72
2022/11/03 10:57:55;;;;;;;0.10;0.10;;;12.50;99.90;11.80;97063.00;;;;5051277;28;20207;-72
2022/11/03 11:00:25;;;;;;;0.10;0.10;;;12.60;99.90;11.80;97053.00;;;;5051663;28;20186;-72
2022/11/03 11:02:59;;;;;;;0.10;0.10;;;12.60;99.90;11.70;97046.00;;;;5048446;28;20191;-71
2022/11/03 11:05:27;;;;;;;0.10;0.10;;;12.60;99.90;11.80;97046.00;;;;5047124;28;20198;-73
2022/11/03 11:07:56;;;;;;;0.10;0.10;;;12.60;99.90;11.80;97042.00;;;;5037885;28;20223;-71
2022/11/03 11:10:27;;;;;;;0.10;0.10;;;12.60;99.90;11.80;97036.00;;;;5041058;28;20194;-72
2022/11/03 11:13:23;;;;;;;0.10;0.10;;;12.60;99.90;11.90;97038.00;;;;5052703;28;20615;-74
2022/11/03 11:15:54;;;;;;;0.00;0.00;;;12.70;99.90;11.90;97047.00;;;;5042445;28;20194;-72
2022/11/03 11:19:09;;;;;;;0.10;0.10;;;12.80;99.90;12.00;97049.00;;;;5054135;28;20271;-72
2022/11/03 11:22:03;;;;;;;0.10;0.10;;;12.80;99.90;11.90;97024.00;;;;5032689;28;20281;-72
2022/11/03 11:25:00;;;;;;;0.10;0.10;;;12.80;99.90;12.10;97035.00;;;;5047860;28;20259;-73
2022/11/03 11:28:12;;;;;;;0.10;0.10;;;12.90;99.90;12.30;97016.00;;;;5036473;28;20230;-72
2022/11/03 11:31:30;;;;;;;0.10;0.10;;;13.00;99.90;12.60;97014.00;;;;5013838;28;20743;-73
2022/11/03 11:34:40;;;;;;;0.10;0.10;;;13.30;99.90;13.80;97014.00;;;;5031940;28;20279;-73
2022/11/03 11:37:35;;;;;;;0.00;0.00;;;13.70;99.90;14.80;97012.00;;;;5033526;28;20277;-73
2022/11/03 11:40:13;;;;;;;0.03;0.03;;;14.20;99.90;14.90;97005.00;;;;5036011;28;20253;-72
2022/11/03 11:43:24;;;;;;;0.10;0.10;;;14.30;99.90;15.40;97005.00;;;;5035030;28;20261;-72
2022/11/03 11:46:33;;;;;;;0.10;0.10;;;14.50;99.90;16.40;96999.00;;;;5036333;28;20210;-73
2022/11/03 11:49:18;;;;;;;0.05;0.05;;;14.90;99.90;17.40;97003.00;;;;5043449;28;20724;-72